High Pnt, North Carolina
Current Conditions -  °F | °C
As of 3:54 PM on Wednesday 17 Dec 2014 (Local Time) from KINT Reporting Station
Clear Clear  
Wind Chill: 56°   Ceiling: Unl
Heat Index: 56°   Visibility: 10mi
Dew Point: 30°   Wind: 6mph
Humidity: 37%   Direction: 310°NW
Pressure: 30.04"   Gusts: NA
Location:  35.9808°N, 80.1272°W
Report Text: KINT 172054Z AUTO 31005KT 10SM CLR 13/M01 A3004 RMK AO2 SLP172 T01331011 55009
Loading
Personal Weather Stations






























Interactive Weather Map New forecast layout! Learn more

10-Day Weather Forecast

Advertisements
Track Severe Weather on mobile